Flight Track Log - Related Links

Times and Time Zones

All times are in EDT time to prevent confusion due to time zone crossing. See the N2UV flight status page for this flight to view local times or setup timezone preferences in your user account.

Time Position Orientation Groundspeed Altitude Reporting Facility
EDT Latitude Longitude Course Direction KTS MPH feet Rate Location/Type
Sun 06:33:54 PM 30.1881 -81.3353 172° South 161 185 9,000  Level Jacksonville Center
Sun 06:34:54 PM 30.1483 -81.3289 172° South 156 180 9,900 900 Climbing Jacksonville Center
Sun 06:35:54 PM 30.1106 -81.3128 160° South 151 174 10,800 900 Climbing Jacksonville Center
Sun 06:36:54 PM 30.0808 -81.2794 136° Southeast 145 167 11,700 850 Climbing Jacksonville Center
Sun 06:37:54 PM 30.0492 -81.2464 138° Southeast 145 167 12,500 850 Climbing Jacksonville Center
Sun 06:38:54 PM 30.0197 -81.2181 140° Southeast 145 167 13,400 800 Climbing Jacksonville Center
Sun 06:39:54 PM 29.9878 -81.1850 138° Southeast 145 167 14,100 750 Climbing Jacksonville Center
Sun 06:40:54 PM 29.9583 -81.1544 138° Southeast 150 173 14,900 750 Climbing Jacksonville Center
Sun 06:41:54 PM 29.9244 -81.1286 147° Southeast 150 173 15,600 650 Climbing Jacksonville Center
Sun 06:42:54 PM 29.8844 -81.1128 161° South 150 173 16,200 600 Climbing Jacksonville Center
Sun 06:43:54 PM 29.8467 -81.0989 162° South 145 167 16,800 600 Climbing Jacksonville Center
Sun 06:44:54 PM 29.8089 -81.0806 157° South 145 167 17,400 550 Climbing Jacksonville Center
Sun 06:45:54 PM 29.7692 -81.0644 161° South 150 173 17,900 350 Climbing Jacksonville Center
Sun 06:46:54 PM 29.7231 -81.0511 166° South 155 178 18,100 50 Climbing Jacksonville Center
Sun 06:47:54 PM 29.6767 -81.0303 159° South 170 196 18,000 -50 Descending Jacksonville Center
Sun 06:48:54 PM 29.6283 -81.0050 156° South 181 208 18,000  Level Jacksonville Center
Sun 06:49:54 PM 29.5739 -80.9894 166° South 194 223 18,000  Level Jacksonville Center
Sun 06:50:54 PM 29.5233 -80.9667 159° South 194 223 18,000  Level Jacksonville Center
Sun 06:51:54 PM 29.4731 -80.9436 158° South 194 223 18,000  Level Jacksonville Center
Sun 06:52:54 PM 29.4203 -80.9208 159° South 194 223 18,000  Level Jacksonville Center
Sun 06:53:54 PM 29.3719 -80.8956 155° Southeast 194 223 18,000 50 Level Jacksonville Center
Sun 06:54:54 PM 29.3217 -80.8775 163° South 194 223 18,100 50 Climbing Jacksonville Center
Sun 06:55:54 PM 29.2692 -80.8597 164° South 188 216 18,100  Level Jacksonville Center
Sun 06:56:24 PM 29.2425 -80.8492 161° South 191 220 18,100  Level Miami Center
Sun 06:57:24 PM 29.1908 -80.8308 163° South 191 220 18,100  Level Miami Center
Sun 06:58:24 PM 29.1394 -80.8050 156° South 191 220 18,100  Level Miami Center
Sun 06:59:24 PM 29.0856 -80.7842 161° South 197 227 18,100  Level Miami Center
Sun 07:00:24 PM 29.0361 -80.7636 160° South 202 232 18,100  Level Miami Center
Sun 07:01:24 PM 28.9847 -80.7381 156° South 202 232 18,100  Level Miami Center
Sun 07:02:24 PM 28.9331 -80.7172 161° South 207 238 18,100  Level Miami Center
Sun 07:03:24 PM 28.8858 -80.6917 155° Southeast 194 223 18,100  Level Miami Center
Sun 07:04:24 PM 28.8386 -80.6594 149° Southeast 189 217 18,100  Level Miami Center
Sun 07:05:24 PM 28.7917 -80.6294 151° Southeast 197 227 18,100  Level Miami Center
Sun 07:06:24 PM 28.7461 -80.6089 158° South 192 221 18,100 -300 Level Miami Center
Sun 07:07:24 PM 28.6908 -80.5761 153° Southeast 197 227 17,500 -550 Descending Miami Center
Sun 07:08:24 PM 28.6375 -80.5414 150° Southeast 207 238 17,000 -550 Descending Miami Center
Sun 07:09:24 PM 28.5819 -80.5089 153° Southeast 217 250 16,400 -600 Descending Miami Center
Sun 07:10:24 PM 28.5242 -80.4761 154° Southeast 217 250 15,800 -550 Descending Miami Center
Sun 07:11:24 PM 28.4708 -80.4461 154° Southeast 217 250 15,300 -400 Descending Miami Center
Sun 07:12:24 PM 28.4172 -80.4136 152° Southeast 217 250 15,000 -150 Descending Miami Center
Sun 07:13:24 PM 28.3614 -80.3978 166° South 212 244 15,000  Level Miami Center
Sun 07:14:24 PM 28.3033 -80.3867 170° South 207 238 15,000  Level Miami Center
Sun 07:15:24 PM 28.2494 -80.3708 165° South 202 232 15,000  Level Miami Center
Sun 07:16:24 PM 28.1956 -80.3550 165° South 202 232 15,000  Level Miami Center
Sun 07:17:24 PM 28.1417 -80.3367 163° South 202 232 15,000 50 Level Miami Center
Sun 07:18:24 PM 28.0989 -80.2978 141° Southeast 197 227 15,100 50 Climbing Miami Center
Sun 07:19:24 PM 28.0494 -80.2703 154° Southeast 197 227 15,100  Level Miami Center
Sun 07:20:24 PM 27.9933 -80.2569 168° South 202 232 15,100  Level Miami Center
Sun 07:21:24 PM 27.9394 -80.2389 164° South 202 232 15,100 -50 Level Miami Center
Sun 07:22:24 PM 27.8836 -80.2208 164° South 202 232 15,000 -50 Descending Miami Center
Sun 07:23:24 PM 27.8317 -80.2075 167° South 202 232 15,000 50 Level Miami Center
Sun 07:24:24 PM 27.7756 -80.1919 166° South 202 232 15,100 50 Climbing Miami Center
Sun 07:25:24 PM 27.7239 -80.1717 161° South 202 232 15,100  Level Miami Center
Sun 07:26:24 PM 27.6742 -80.1583 167° South 202 232 15,100  Level Miami Center
Sun 07:27:24 PM 27.6161 -80.1381 163° South 202 232 15,100 -50 Level Miami Center
Sun 07:28:24 PM 27.5600 -80.1247 168° South 202 232 15,000 -300 Descending Miami Center
Sun 07:29:24 PM 27.5019 -80.1067 165° South 202 232 14,500 -550 Descending Miami Center
Sun 07:30:24 PM 27.4481 -80.0864 162° South 215 247 13,900 -550 Descending Miami Center
Sun 07:31:24 PM 27.3881 -80.0683 165° South 227 261 13,400 -550 Descending Miami Center
Sun 07:32:24 PM 27.3217 -80.0500 166° South 227 261 12,800 -600 Descending Miami Center
Sun 07:33:24 PM 27.2614 -80.0297 163° South 221 254 12,200 -350 Descending Miami Center
Sun 07:34:24 PM 27.2033 -80.0142 167° South 221 254 12,100 -100 Descending Miami Center
Sun 07:35:24 PM 27.1511 -80.0219 188° South 216 249 12,000 -300 Descending Miami Center
Sun 07:36:24 PM 27.0886 -80.0156 175° South 216 249 11,500 -500 Descending Miami Center
Sun 07:37:24 PM 27.0219 -80.0069 173° South 216 249 11,000 -500 Descending Miami Center
Sun 07:38:24 PM 26.9614 -80.0006 175° South 216 249 10,500 -450 Descending Miami Center
Sun 07:39:24 PM 26.9008 -79.9967 177° South 216 249 10,100 -508 Descending Miami Center
Sun 07:41:00 PM 26.8915 -79.9002 96° East  Level FlightAware Approximate
Sun 07:44:18 PM 26.6133 -79.9633 193° South 204 235 7,500  Level Miami Center
Sun 07:45:43 PM 26.5300 -79.9542 174° South 205 236 6,400 -571 Descending Miami Center
Sun 07:46:45 PM 26.4758 -79.9528 179° South 197 227 6,100 -295 Descending Miami Center
Sun 07:47:45 PM 26.4236 -79.9539 181° South 185 213 5,800 -496 Descending Miami Center
Sun 07:48:00 PM 26.5403 -79.9191 193° South  Level FlightAware Approximate
Sun 07:48:46 PM 26.3728 -79.9872 210° Southwest 211 243 5,100  Level Miami Center
Sun 07:49:00 PM 26.4875 -79.9323 193° South  Level FlightAware Approximate
Sun 07:49:41 PM 26.3386 -80.0258 225° Southwest 191 220 4,000  Level Miami Center
Sun 07:50:42 PM 26.3000 -80.0664 223° Southwest 192 221 2,800 -992 Descending Miami Center
Sun 07:51:42 PM 26.2594 -80.1069 222° Southwest 180 207 2,000 -397 Descending Miami Center
Sun 07:52:43 PM 26.2356 -80.1411 232° Southwest 139 160 2,000 -103 Level Miami Center
Sun 07:53:38 PM 26.2244 -80.1803 252° West 149 171 1,800 -466 Descending Miami Center
Sun 07:54:39 PM 26.2233 -80.2289 269° West 151 174 1,100 -563 Descending Miami Center
Sun 07:55:46 PM 26.1919 -80.2233 171° South 117 135 600 -448 Descending Miami Center
Sun 07:57:00 PM 26.1973 -80.1707 154° Southeast  Level Estimated
Sun 08:04:00 PM 26.1973 -80.1707 195° South  Level Estimated
Sun 08:05:00 PM 26.1973 -80.1707 North  Level Estimated
Sun 08:06:00 PM 26.1973 -80.1707 176° South  Level Estimated
Sun 08:07:00 PM 26.1973 -80.1707 176° South  Level Estimated
Sun 08:08:00 PM 26.1973 -80.1707 176° South  Level Estimated
Sun 08:09:00 PM 26.1973 -80.1707 North  Level Estimated
Sun 08:10:00 PM 26.1973 -80.1707 347° North  Level Estimated

Login

Don't have an account? Register now (free) for customized features, flight alerts, and more!